sensor_id;sensor_type;location;lat;lon;timestamp;P1;durP1;ratioP1;P2;durP2;ratioP2
43146;SDS011;28752;48.266;7.402;2023-08-08T00:00:12;2.17;;;1.10;;
43146;SDS011;28752;48.266;7.402;2023-08-08T00:02:38;3.40;;;1.33;;
43146;SDS011;28752;48.266;7.402;2023-08-08T00:09:55;4.87;;;1.50;;
43146;SDS011;28752;48.266;7.402;2023-08-08T00:12:21;3.00;;;1.15;;
43146;SDS011;28752;48.266;7.402;2023-08-08T00:14:46;2.50;;;1.00;;
43146;SDS011;28752;48.266;7.402;2023-08-08T00:17:12;2.40;;;1.10;;
43146;SDS011;28752;48.266;7.402;2023-08-08T00:19:37;1.97;;;1.00;;
43146;SDS011;28752;48.266;7.402;2023-08-08T00:22:02;3.20;;;1.40;;
43146;SDS011;28752;48.266;7.402;2023-08-08T00:24:28;3.17;;;1.25;;
43146;SDS011;28752;48.266;7.402;2023-08-08T00:26:53;2.67;;;1.17;;
43146;SDS011;28752;48.266;7.402;2023-08-08T00:29:19;3.43;;;1.40;;
43146;SDS011;28752;48.266;7.402;2023-08-08T00:31:44;2.47;;;1.20;;
43146;SDS011;28752;48.266;7.402;2023-08-08T00:34:09;1.63;;;0.90;;
43146;SDS011;28752;48.266;7.402;2023-08-08T00:36:34;3.07;;;1.30;;
43146;SDS011;28752;48.266;7.402;2023-08-08T00:39:00;2.20;;;1.10;;
43146;SDS011;28752;48.266;7.402;2023-08-08T00:41:25;3.30;;;1.43;;
43146;SDS011;28752;48.266;7.402;2023-08-08T00:43:51;5.20;;;1.48;;
43146;SDS011;28752;48.266;7.402;2023-08-08T00:46:17;2.57;;;1.10;;
43146;SDS011;28752;48.266;7.402;2023-08-08T00:48:45;3.45;;;1.17;;
43146;SDS011;28752;48.266;7.402;2023-08-08T00:51:11;2.33;;;1.10;;
43146;SDS011;28752;48.266;7.402;2023-08-08T00:53:36;4.77;;;1.53;;
43146;SDS011;28752;48.266;7.402;2023-08-08T00:56:02;3.03;;;1.40;;
43146;SDS011;28752;48.266;7.402;2023-08-08T00:58:28;2.92;;;1.40;;
43146;SDS011;28752;48.266;7.402;2023-08-08T01:00:54;4.17;;;1.53;;
43146;SDS011;28752;48.266;7.402;2023-08-08T01:03:22;2.60;;;1.35;;
43146;SDS011;28752;48.266;7.402;2023-08-08T01:05:48;5.07;;;1.50;;
43146;SDS011;28752;48.266;7.402;2023-08-08T01:08:25;3.30;;;1.27;;
43146;SDS011;28752;48.266;7.402;2023-08-08T01:10:55;3.20;;;1.30;;
43146;SDS011;28752;48.266;7.402;2023-08-08T01:13:22;3.20;;;1.52;;
43146;SDS011;28752;48.266;7.402;2023-08-08T01:15:49;2.72;;;1.50;;
43146;SDS011;28752;48.266;7.402;2023-08-08T01:18:15;3.65;;;1.25;;
43146;SDS011;28752;48.266;7.402;2023-08-08T01:25:37;5.40;;;1.85;;
43146;SDS011;28752;48.266;7.402;2023-08-08T01:28:03;4.00;;;1.50;;
43146;SDS011;28752;48.266;7.402;2023-08-08T01:30:29;3.08;;;1.30;;
43146;SDS011;28752;48.266;7.402;2023-08-08T01:32:54;2.83;;;1.37;;
43146;SDS011;28752;48.266;7.402;2023-08-08T01:35:19;4.87;;;1.93;;
43146;SDS011;28752;48.266;7.402;2023-08-08T01:37:51;2.45;;;1.30;;
43146;SDS011;28752;48.266;7.402;2023-08-08T01:40:19;3.92;;;1.23;;
43146;SDS011;28752;48.266;7.402;2023-08-08T01:42:46;3.50;;;1.40;;
43146;SDS011;28752;48.266;7.402;2023-08-08T01:45:13;2.92;;;1.40;;
43146;SDS011;28752;48.266;7.402;2023-08-08T01:47:40;4.40;;;1.50;;
43146;SDS011;28752;48.266;7.402;2023-08-08T01:50:06;3.00;;;1.48;;
43146;SDS011;28752;48.266;7.402;2023-08-08T01:52:32;3.40;;;1.30;;
43146;SDS011;28752;48.266;7.402;2023-08-08T01:54:58;2.83;;;1.33;;
43146;SDS011;28752;48.266;7.402;2023-08-08T01:57:23;4.60;;;1.30;;
43146;SDS011;28752;48.266;7.402;2023-08-08T01:59:48;4.60;;;1.13;;
43146;SDS011;28752;48.266;7.402;2023-08-08T02:02:14;2.83;;;1.15;;
43146;SDS011;28752;48.266;7.402;2023-08-08T02:04:42;2.53;;;1.08;;
43146;SDS011;28752;48.266;7.402;2023-08-08T02:07:07;4.00;;;1.30;;
43146;SDS011;28752;48.266;7.402;2023-08-08T02:09:32;3.37;;;1.40;;
43146;SDS011;28752;48.266;7.402;2023-08-08T02:11:58;3.43;;;1.30;;
43146;SDS011;28752;48.266;7.402;2023-08-08T02:14:23;2.90;;;1.03;;
43146;SDS011;28752;48.266;7.402;2023-08-08T02:16:48;3.20;;;1.30;;
43146;SDS011;28752;48.266;7.402;2023-08-08T02:19:14;2.57;;;1.00;;
43146;SDS011;28752;48.266;7.402;2023-08-08T02:21:40;4.55;;;1.20;;
43146;SDS011;28752;48.266;7.402;2023-08-08T02:24:05;3.97;;;1.70;;
43146;SDS011;28752;48.266;7.402;2023-08-08T02:26:30;3.77;;;1.60;;
43146;SDS011;28752;48.266;7.402;2023-08-08T02:28:56;2.70;;;1.20;;
43146;SDS011;28752;48.266;7.402;2023-08-08T02:31:21;3.47;;;1.40;;
43146;SDS011;28752;48.266;7.402;2023-08-08T02:33:50;4.13;;;1.53;;
43146;SDS011;28752;48.266;7.402;2023-08-08T02:36:16;3.00;;;1.30;;
43146;SDS011;28752;48.266;7.402;2023-08-08T02:43:32;4.67;;;1.57;;
43146;SDS011;28752;48.266;7.402;2023-08-08T02:45:58;3.33;;;1.30;;
43146;SDS011;28752;48.266;7.402;2023-08-08T02:48:23;3.10;;;1.57;;
43146;SDS011;28752;48.266;7.402;2023-08-08T02:50:48;4.80;;;1.60;;
43146;SDS011;28752;48.266;7.402;2023-08-08T02:53:14;3.20;;;1.53;;
43146;SDS011;28752;48.266;7.402;2023-08-08T02:55:39;3.03;;;1.50;;
43146;SDS011;28752;48.266;7.402;2023-08-08T02:58:04;3.73;;;1.50;;
43146;SDS011;28752;48.266;7.402;2023-08-08T03:00:30;5.45;;;1.80;;
43146;SDS011;28752;48.266;7.402;2023-08-08T03:02:56;3.33;;;1.50;;
43146;SDS011;28752;48.266;7.402;2023-08-08T03:05:21;7.05;;;1.85;;
43146;SDS011;28752;48.266;7.402;2023-08-08T03:07:47;2.93;;;1.20;;
43146;SDS011;28752;48.266;7.402;2023-08-08T03:10:12;3.07;;;1.40;;
43146;SDS011;28752;48.266;7.402;2023-08-08T03:12:38;4.38;;;1.60;;
43146;SDS011;28752;48.266;7.402;2023-08-08T03:15:03;3.90;;;1.50;;
43146;SDS011;28752;48.266;7.402;2023-08-08T03:17:29;2.75;;;1.27;;
43146;SDS011;28752;48.266;7.402;2023-08-08T03:19:54;3.30;;;1.43;;
43146;SDS011;28752;48.266;7.402;2023-08-08T03:22:20;2.60;;;1.30;;
43146;SDS011;28752;48.266;7.402;2023-08-08T03:24:45;4.40;;;1.23;;
43146;SDS011;28752;48.266;7.402;2023-08-08T03:27:10;3.13;;;1.43;;
43146;SDS011;28752;48.266;7.402;2023-08-08T03:29:36;3.07;;;1.40;;
43146;SDS011;28752;48.266;7.402;2023-08-08T03:32:01;2.77;;;1.23;;
43146;SDS011;28752;48.266;7.402;2023-08-08T03:34:28;3.30;;;1.40;;
43146;SDS011;28752;48.266;7.402;2023-08-08T03:36:54;3.50;;;1.50;;
43146;SDS011;28752;48.266;7.402;2023-08-08T03:39:19;3.23;;;1.53;;
43146;SDS011;28752;48.266;7.402;2023-08-08T03:41:45;3.53;;;1.40;;
43146;SDS011;28752;48.266;7.402;2023-08-08T03:44:10;3.10;;;1.27;;
43146;SDS011;28752;48.266;7.402;2023-08-08T03:46:35;3.43;;;1.43;;
43146;SDS011;28752;48.266;7.402;2023-08-08T03:49:01;5.23;;;1.70;;
43146;SDS011;28752;48.266;7.402;2023-08-08T03:51:26;5.10;;;1.70;;
43146;SDS011;28752;48.266;7.402;2023-08-08T03:53:51;4.30;;;1.60;;
43146;SDS011;28752;48.266;7.402;2023-08-08T03:56:17;4.07;;;1.63;;
43146;SDS011;28752;48.266;7.402;2023-08-08T03:58:42;3.90;;;1.70;;
43146;SDS011;28752;48.266;7.402;2023-08-08T04:01:08;3.47;;;1.50;;
43146;SDS011;28752;48.266;7.402;2023-08-08T04:03:33;5.50;;;1.70;;
43146;SDS011;28752;48.266;7.402;2023-08-08T04:05:58;3.53;;;1.60;;
43146;SDS011;28752;48.266;7.402;2023-08-08T04:08:24;3.73;;;1.67;;
43146;SDS011;28752;48.266;7.402;2023-08-08T04:10:49;3.70;;;1.80;;
43146;SDS011;28752;48.266;7.402;2023-08-08T04:13:14;7.13;;;1.67;;
43146;SDS011;28752;48.266;7.402;2023-08-08T04:15:40;3.80;;;1.53;;
43146;SDS011;28752;48.266;7.402;2023-08-08T04:18:05;4.60;;;1.90;;
43146;SDS011;28752;48.266;7.402;2023-08-08T04:20:32;3.65;;;1.40;;
43146;SDS011;28752;48.266;7.402;2023-08-08T04:22:58;5.03;;;1.48;;
43146;SDS011;28752;48.266;7.402;2023-08-08T04:25:24;2.85;;;1.27;;
43146;SDS011;28752;48.266;7.402;2023-08-08T04:27:49;5.07;;;1.67;;
43146;SDS011;28752;48.266;7.402;2023-08-08T04:30:14;4.20;;;1.60;;
43146;SDS011;28752;48.266;7.402;2023-08-08T04:32:40;5.30;;;1.53;;
43146;SDS011;28752;48.266;7.402;2023-08-08T04:35:05;3.23;;;1.40;;
43146;SDS011;28752;48.266;7.402;2023-08-08T04:37:31;4.27;;;1.60;;
43146;SDS011;28752;48.266;7.402;2023-08-08T04:39:56;3.67;;;1.27;;
43146;SDS011;28752;48.266;7.402;2023-08-08T04:42:21;3.40;;;1.50;;
43146;SDS011;28752;48.266;7.402;2023-08-08T04:44:47;5.70;;;1.73;;
43146;SDS011;28752;48.266;7.402;2023-08-08T04:47:12;3.60;;;1.60;;
43146;SDS011;28752;48.266;7.402;2023-08-08T04:49:37;6.60;;;1.90;;
43146;SDS011;28752;48.266;7.402;2023-08-08T04:52:03;5.43;;;1.90;;
43146;SDS011;28752;48.266;7.402;2023-08-08T04:54:29;4.07;;;1.85;;
43146;SDS011;28752;48.266;7.402;2023-08-08T04:56:54;3.80;;;1.52;;
43146;SDS011;28752;48.266;7.402;2023-08-08T04:59:19;4.63;;;1.90;;
43146;SDS011;28752;48.266;7.402;2023-08-08T05:01:45;3.03;;;1.50;;
43146;SDS011;28752;48.266;7.402;2023-08-08T05:04:10;3.67;;;1.77;;
43146;SDS011;28752;48.266;7.402;2023-08-08T05:06:35;3.37;;;1.87;;
43146;SDS011;28752;48.266;7.402;2023-08-08T05:09:01;3.43;;;1.40;;
43146;SDS011;28752;48.266;7.402;2023-08-08T05:11:26;4.33;;;1.90;;
43146;SDS011;28752;48.266;7.402;2023-08-08T05:13:52;4.07;;;1.70;;
43146;SDS011;28752;48.266;7.402;2023-08-08T05:16:17;3.37;;;1.43;;
43146;SDS011;28752;48.266;7.402;2023-08-08T05:18:43;3.50;;;1.50;;
43146;SDS011;28752;48.266;7.402;2023-08-08T05:21:11;3.33;;;1.38;;
43146;SDS011;28752;48.266;7.402;2023-08-08T05:23:36;3.93;;;1.47;;
43146;SDS011;28752;48.266;7.402;2023-08-08T05:26:02;2.75;;;1.40;;
43146;SDS011;28752;48.266;7.402;2023-08-08T05:28:28;4.15;;;1.15;;
43146;SDS011;28752;48.266;7.402;2023-08-08T05:30:54;6.22;;;1.73;;
43146;SDS011;28752;48.266;7.402;2023-08-08T05:33:19;3.33;;;1.27;;
43146;SDS011;28752;48.266;7.402;2023-08-08T05:35:44;2.50;;;1.30;;
43146;SDS011;28752;48.266;7.402;2023-08-08T05:38:10;4.77;;;1.57;;
43146;SDS011;28752;48.266;7.402;2023-08-08T05:40:35;3.30;;;1.33;;
43146;SDS011;28752;48.266;7.402;2023-08-08T05:43:01;4.35;;;1.50;;
43146;SDS011;28752;48.266;7.402;2023-08-08T05:45:27;2.83;;;1.42;;
43146;SDS011;28752;48.266;7.402;2023-08-08T05:47:53;4.10;;;1.60;;
43146;SDS011;28752;48.266;7.402;2023-08-08T05:50:19;3.72;;;1.58;;
43146;SDS011;28752;48.266;7.402;2023-08-08T05:52:45;3.47;;;1.23;;
43146;SDS011;28752;48.266;7.402;2023-08-08T05:55:10;9.47;;;2.13;;
43146;SDS011;28752;48.266;7.402;2023-08-08T05:57:35;2.87;;;1.20;;
43146;SDS011;28752;48.266;7.402;2023-08-08T06:00:01;3.60;;;1.30;;
43146;SDS011;28752;48.266;7.402;2023-08-08T06:02:26;4.53;;;1.70;;
43146;SDS011;28752;48.266;7.402;2023-08-08T06:04:52;4.50;;;1.70;;
43146;SDS011;28752;48.266;7.402;2023-08-08T06:07:17;3.37;;;1.37;;
43146;SDS011;28752;48.266;7.402;2023-08-08T06:09:42;4.63;;;1.40;;
43146;SDS011;28752;48.266;7.402;2023-08-08T06:12:08;4.73;;;1.50;;
43146;SDS011;28752;48.266;7.402;2023-08-08T06:14:34;3.15;;;1.40;;
43146;SDS011;28752;48.266;7.402;2023-08-08T06:16:59;5.73;;;1.43;;
43146;SDS011;28752;48.266;7.402;2023-08-08T06:19:24;3.03;;;1.30;;
43146;SDS011;28752;48.266;7.402;2023-08-08T06:21:50;3.03;;;1.20;;
43146;SDS011;28752;48.266;7.402;2023-08-08T06:24:15;2.80;;;1.30;;
43146;SDS011;28752;48.266;7.402;2023-08-08T06:26:41;2.63;;;1.47;;
43146;SDS011;28752;48.266;7.402;2023-08-08T06:29:06;1.93;;;1.00;;
43146;SDS011;28752;48.266;7.402;2023-08-08T06:31:31;2.77;;;1.17;;
43146;SDS011;28752;48.266;7.402;2023-08-08T06:33:57;3.00;;;1.35;;
43146;SDS011;28752;48.266;7.402;2023-08-08T06:36:22;2.40;;;1.10;;
43146;SDS011;28752;48.266;7.402;2023-08-08T06:38:47;3.40;;;1.10;;
43146;SDS011;28752;48.266;7.402;2023-08-08T06:41:13;3.50;;;1.40;;
43146;SDS011;28752;48.266;7.402;2023-08-08T06:43:38;2.67;;;1.17;;
43146;SDS011;28752;48.266;7.402;2023-08-08T06:48:29;3.85;;;1.33;;
43146;SDS011;28752;48.266;7.402;2023-08-08T06:50:55;4.57;;;1.35;;
43146;SDS011;28752;48.266;7.402;2023-08-08T06:55:45;3.07;;;1.17;;
43146;SDS011;28752;48.266;7.402;2023-08-08T07:03:01;3.97;;;1.07;;
43146;SDS011;28752;48.266;7.402;2023-08-08T07:05:26;3.40;;;1.52;;
43146;SDS011;28752;48.266;7.402;2023-08-08T07:07:52;3.35;;;0.90;;
43146;SDS011;28752;48.266;7.402;2023-08-08T07:10:18;2.67;;;1.00;;
43146;SDS011;28752;48.266;7.402;2023-08-08T07:12:44;5.00;;;1.48;;
43146;SDS011;28752;48.266;7.402;2023-08-08T07:15:09;2.63;;;1.10;;
43146;SDS011;28752;48.266;7.402;2023-08-08T07:17:35;3.28;;;1.10;;
43146;SDS011;28752;48.266;7.402;2023-08-08T07:20:00;4.45;;;0.98;;
43146;SDS011;28752;48.266;7.402;2023-08-08T07:22:26;3.40;;;0.90;;
43146;SDS011;28752;48.266;7.402;2023-08-08T07:24:52;4.45;;;1.10;;
43146;SDS011;28752;48.266;7.402;2023-08-08T07:27:17;2.75;;;1.08;;
43146;SDS011;28752;48.266;7.402;2023-08-08T07:29:43;2.58;;;1.00;;
43146;SDS011;28752;48.266;7.402;2023-08-08T07:32:08;2.45;;;1.00;;
43146;SDS011;28752;48.266;7.402;2023-08-08T07:34:34;9.82;;;1.38;;
43146;SDS011;28752;48.266;7.402;2023-08-08T07:36:59;2.50;;;0.90;;
43146;SDS011;28752;48.266;7.402;2023-08-08T07:39:25;2.80;;;1.20;;
43146;SDS011;28752;48.266;7.402;2023-08-08T07:41:50;2.35;;;1.25;;
43146;SDS011;28752;48.266;7.402;2023-08-08T07:44:16;3.40;;;0.93;;
43146;SDS011;28752;48.266;7.402;2023-08-08T07:46:41;2.45;;;1.10;;
43146;SDS011;28752;48.266;7.402;2023-08-08T07:49:07;2.50;;;1.10;;
43146;SDS011;28752;48.266;7.402;2023-08-08T07:51:34;2.85;;;1.13;;
43146;SDS011;28752;48.266;7.402;2023-08-08T07:56:25;3.20;;;1.35;;
43146;SDS011;28752;48.266;7.402;2023-08-08T08:01:16;2.73;;;1.20;;
43146;SDS011;28752;48.266;7.402;2023-08-08T08:06:07;2.70;;;1.10;;
43146;SDS011;28752;48.266;7.402;2023-08-08T08:08:32;3.72;;;1.10;;
43146;SDS011;28752;48.266;7.402;2023-08-08T08:13:23;2.28;;;0.90;;
43146;SDS011;28752;48.266;7.402;2023-08-08T08:15:48;5.40;;;1.40;;
43146;SDS011;28752;48.266;7.402;2023-08-08T08:18:14;2.65;;;1.02;;
43146;SDS011;28752;48.266;7.402;2023-08-08T08:20:41;2.88;;;1.08;;
43146;SDS011;28752;48.266;7.402;2023-08-08T08:23:07;3.35;;;1.10;;
43146;SDS011;28752;48.266;7.402;2023-08-08T08:25:32;3.25;;;1.10;;
43146;SDS011;28752;48.266;7.402;2023-08-08T08:27:58;3.75;;;1.25;;
43146;SDS011;28752;48.266;7.402;2023-08-08T08:30:23;2.33;;;1.10;;
43146;SDS011;28752;48.266;7.402;2023-08-08T08:32:51;2.55;;;1.17;;
43146;SDS011;28752;48.266;7.402;2023-08-08T08:35:16;2.80;;;1.15;;
43146;SDS011;28752;48.266;7.402;2023-08-08T08:37:42;3.28;;;1.30;;
43146;SDS011;28752;48.266;7.402;2023-08-08T08:40:07;3.67;;;1.48;;
43146;SDS011;28752;48.266;7.402;2023-08-08T08:42:34;5.03;;;1.30;;
43146;SDS011;28752;48.266;7.402;2023-08-08T08:44:59;2.50;;;0.98;;
43146;SDS011;28752;48.266;7.402;2023-08-08T08:47:27;3.85;;;1.13;;
43146;SDS011;28752;48.266;7.402;2023-08-08T08:49:55;4.03;;;1.27;;
43146;SDS011;28752;48.266;7.402;2023-08-08T08:52:22;2.97;;;1.10;;
43146;SDS011;28752;48.266;7.402;2023-08-08T08:54:48;2.85;;;1.00;;
43146;SDS011;28752;48.266;7.402;2023-08-08T08:57:13;3.25;;;1.00;;
43146;SDS011;28752;48.266;7.402;2023-08-08T08:59:39;2.65;;;0.93;;
43146;SDS011;28752;48.266;7.402;2023-08-08T09:02:04;3.65;;;1.33;;
43146;SDS011;28752;48.266;7.402;2023-08-08T09:04:31;2.25;;;1.05;;
43146;SDS011;28752;48.266;7.402;2023-08-08T09:06:57;2.58;;;1.08;;
43146;SDS011;28752;48.266;7.402;2023-08-08T09:09:23;2.03;;;1.00;;
43146;SDS011;28752;48.266;7.402;2023-08-08T09:11:50;2.25;;;0.93;;
43146;SDS011;28752;48.266;7.402;2023-08-08T09:14:23;1.65;;;0.88;;
43146;SDS011;28752;48.266;7.402;2023-08-08T09:16:50;2.45;;;1.02;;
43146;SDS011;28752;48.266;7.402;2023-08-08T09:19:21;2.15;;;0.85;;
43146;SDS011;28752;48.266;7.402;2023-08-08T09:21:47;1.35;;;0.75;;
43146;SDS011;28752;48.266;7.402;2023-08-08T09:24:13;3.20;;;1.00;;
43146;SDS011;28752;48.266;7.402;2023-08-08T09:29:04;3.90;;;1.13;;
43146;SDS011;28752;48.266;7.402;2023-08-08T09:31:30;3.25;;;0.90;;
43146;SDS011;28752;48.266;7.402;2023-08-08T09:33:57;2.50;;;1.00;;
43146;SDS011;28752;48.266;7.402;2023-08-08T09:36:23;2.17;;;1.00;;
43146;SDS011;28752;48.266;7.402;2023-08-08T09:38:49;1.45;;;0.80;;
43146;SDS011;28752;48.266;7.402;2023-08-08T09:46:08;3.85;;;1.30;;
43146;SDS011;28752;48.266;7.402;2023-08-08T09:48:33;2.80;;;1.33;;
43146;SDS011;28752;48.266;7.402;2023-08-08T09:53:27;3.80;;;1.10;;
43146;SDS011;28752;48.266;7.402;2023-08-08T09:55:53;2.50;;;1.00;;
43146;SDS011;28752;48.266;7.402;2023-08-08T09:58:20;3.63;;;1.10;;
43146;SDS011;28752;48.266;7.402;2023-08-08T10:00:48;2.25;;;0.98;;
43146;SDS011;28752;48.266;7.402;2023-08-08T10:03:14;2.28;;;1.10;;
43146;SDS011;28752;48.266;7.402;2023-08-08T10:05:44;2.63;;;1.20;;
43146;SDS011;28752;48.266;7.402;2023-08-08T10:08:10;2.70;;;0.98;;
43146;SDS011;28752;48.266;7.402;2023-08-08T10:13:02;2.67;;;0.90;;
43146;SDS011;28752;48.266;7.402;2023-08-08T10:20:20;3.78;;;0.93;;
43146;SDS011;28752;48.266;7.402;2023-08-08T10:25:24;2.65;;;1.15;;
43146;SDS011;28752;48.266;7.402;2023-08-08T10:28:05;2.97;;;1.08;;
43146;SDS011;28752;48.266;7.402;2023-08-08T10:33:39;2.40;;;1.02;;
43146;SDS011;28752;48.266;7.402;2023-08-08T10:36:06;1.67;;;0.80;;
43146;SDS011;28752;48.266;7.402;2023-08-08T10:38:40;2.45;;;0.88;;
43146;SDS011;28752;48.266;7.402;2023-08-08T10:41:10;2.92;;;1.13;;
43146;SDS011;28752;48.266;7.402;2023-08-08T10:43:37;3.05;;;1.10;;
43146;SDS011;28752;48.266;7.402;2023-08-08T10:46:03;1.55;;;0.90;;
43146;SDS011;28752;48.266;7.402;2023-08-08T10:48:29;1.88;;;0.88;;
43146;SDS011;28752;48.266;7.402;2023-08-08T10:50:55;1.92;;;1.02;;
43146;SDS011;28752;48.266;7.402;2023-08-08T10:53:25;2.90;;;1.00;;
43146;SDS011;28752;48.266;7.402;2023-08-08T10:55:58;1.40;;;0.80;;
43146;SDS011;28752;48.266;7.402;2023-08-08T10:58:34;2.25;;;0.85;;
43146;SDS011;28752;48.266;7.402;2023-08-08T11:03:26;3.95;;;1.00;;
43146;SDS011;28752;48.266;7.402;2023-08-08T11:08:17;2.10;;;0.75;;
43146;SDS011;28752;48.266;7.402;2023-08-08T11:13:09;3.55;;;1.50;;
43146;SDS011;28752;48.266;7.402;2023-08-08T11:15:35;2.05;;;0.90;;
43146;SDS011;28752;48.266;7.402;2023-08-08T11:18:01;2.17;;;0.80;;
43146;SDS011;28752;48.266;7.402;2023-08-08T11:20:31;2.15;;;0.70;;
43146;SDS011;28752;48.266;7.402;2023-08-08T11:22:58;2.42;;;1.00;;
43146;SDS011;28752;48.266;7.402;2023-08-08T11:27:53;3.72;;;1.77;;
43146;SDS011;28752;48.266;7.402;2023-08-08T11:30:20;5.05;;;1.70;;
43146;SDS011;28752;48.266;7.402;2023-08-08T11:32:50;2.58;;;1.13;;
43146;SDS011;28752;48.266;7.402;2023-08-08T11:35:16;2.22;;;0.90;;
43146;SDS011;28752;48.266;7.402;2023-08-08T11:37:43;2.08;;;0.98;;
43146;SDS011;28752;48.266;7.402;2023-08-08T11:40:11;2.75;;;0.90;;
43146;SDS011;28752;48.266;7.402;2023-08-08T11:42:37;4.20;;;1.10;;
43146;SDS011;28752;48.266;7.402;2023-08-08T11:45:03;3.05;;;1.05;;
43146;SDS011;28752;48.266;7.402;2023-08-08T11:50:00;1.73;;;0.88;;
43146;SDS011;28752;48.266;7.402;2023-08-08T11:52:27;1.88;;;0.80;;
43146;SDS011;28752;48.266;7.402;2023-08-08T11:54:53;1.35;;;0.90;;
43146;SDS011;28752;48.266;7.402;2023-08-08T11:57:18;2.13;;;0.82;;
43146;SDS011;28752;48.266;7.402;2023-08-08T12:02:09;2.60;;;0.80;;
43146;SDS011;28752;48.266;7.402;2023-08-08T12:07:00;2.80;;;0.90;;
43146;SDS011;28752;48.266;7.402;2023-08-08T12:09:31;1.58;;;0.90;;
43146;SDS011;28752;48.266;7.402;2023-08-08T12:11:59;2.05;;;0.80;;
43146;SDS011;28752;48.266;7.402;2023-08-08T12:14:27;2.25;;;0.90;;
43146;SDS011;28752;48.266;7.402;2023-08-08T12:16:53;1.67;;;0.77;;
43146;SDS011;28752;48.266;7.402;2023-08-08T12:19:22;2.78;;;1.00;;
43146;SDS011;28752;48.266;7.402;2023-08-08T12:21:49;1.83;;;0.80;;
43146;SDS011;28752;48.266;7.402;2023-08-08T12:24:16;1.75;;;0.85;;
43146;SDS011;28752;48.266;7.402;2023-08-08T12:26:42;2.88;;;1.00;;
43146;SDS011;28752;48.266;7.402;2023-08-08T12:29:08;2.67;;;0.80;;
43146;SDS011;28752;48.266;7.402;2023-08-08T12:31:33;3.33;;;1.30;;
43146;SDS011;28752;48.266;7.402;2023-08-08T12:36:24;2.13;;;0.88;;
43146;SDS011;28752;48.266;7.402;2023-08-08T12:41:15;2.30;;;0.73;;
43146;SDS011;28752;48.266;7.402;2023-08-08T12:43:41;1.63;;;0.88;;
43146;SDS011;28752;48.266;7.402;2023-08-08T12:48:32;1.57;;;0.70;;
43146;SDS011;28752;48.266;7.402;2023-08-08T12:53:22;3.50;;;1.00;;
43146;SDS011;28752;48.266;7.402;2023-08-08T12:58:13;3.07;;;1.00;;
43146;SDS011;28752;48.266;7.402;2023-08-08T13:00:38;1.50;;;0.82;;
43146;SDS011;28752;48.266;7.402;2023-08-08T13:03:04;2.55;;;0.65;;
43146;SDS011;28752;48.266;7.402;2023-08-08T13:05:29;1.88;;;0.60;;
43146;SDS011;28752;48.266;7.402;2023-08-08T13:10:20;2.30;;;1.00;;
43146;SDS011;28752;48.266;7.402;2023-08-08T13:12:46;1.67;;;0.70;;
43146;SDS011;28752;48.266;7.402;2023-08-08T13:15:12;2.80;;;0.85;;
43146;SDS011;28752;48.266;7.402;2023-08-08T13:17:38;1.88;;;0.70;;
43146;SDS011;28752;48.266;7.402;2023-08-08T13:22:29;2.17;;;0.85;;
43146;SDS011;28752;48.266;7.402;2023-08-08T13:27:19;2.40;;;0.90;;
43146;SDS011;28752;48.266;7.402;2023-08-08T13:29:46;2.53;;;0.93;;
43146;SDS011;28752;48.266;7.402;2023-08-08T13:32:11;2.42;;;0.88;;
43146;SDS011;28752;48.266;7.402;2023-08-08T13:34:37;1.90;;;0.77;;
43146;SDS011;28752;48.266;7.402;2023-08-08T13:39:28;2.78;;;1.00;;
43146;SDS011;28752;48.266;7.402;2023-08-08T13:41:53;2.30;;;0.90;;
43146;SDS011;28752;48.266;7.402;2023-08-08T13:44:19;2.75;;;0.82;;
43146;SDS011;28752;48.266;7.402;2023-08-08T13:46:44;2.00;;;1.15;;
43146;SDS011;28752;48.266;7.402;2023-08-08T13:51:35;2.85;;;0.80;;
43146;SDS011;28752;48.266;7.402;2023-08-08T13:54:00;2.83;;;0.95;;
43146;SDS011;28752;48.266;7.402;2023-08-08T13:58:51;1.83;;;0.80;;
43146;SDS011;28752;48.266;7.402;2023-08-08T14:01:16;2.80;;;0.98;;
43146;SDS011;28752;48.266;7.402;2023-08-08T14:06:07;1.13;;;0.70;;
43146;SDS011;28752;48.266;7.402;2023-08-08T14:13:23;2.87;;;1.20;;
43146;SDS011;28752;48.266;7.402;2023-08-08T14:18:14;2.53;;;1.03;;
43146;SDS011;28752;48.266;7.402;2023-08-08T14:25:30;2.80;;;0.73;;
43146;SDS011;28752;48.266;7.402;2023-08-08T14:30:24;2.88;;;0.90;;
43146;SDS011;28752;48.266;7.402;2023-08-08T14:32:52;1.85;;;0.82;;
43146;SDS011;28752;48.266;7.402;2023-08-08T14:35:18;1.95;;;0.80;;
43146;SDS011;28752;48.266;7.402;2023-08-08T14:37:43;2.42;;;0.77;;
43146;SDS011;28752;48.266;7.402;2023-08-08T14:42:34;3.87;;;1.60;;
43146;SDS011;28752;48.266;7.402;2023-08-08T14:44:59;2.13;;;0.80;;
43146;SDS011;28752;48.266;7.402;2023-08-08T14:47:24;2.05;;;0.95;;
43146;SDS011;28752;48.266;7.402;2023-08-08T14:49:50;2.25;;;0.95;;
43146;SDS011;28752;48.266;7.402;2023-08-08T14:52:16;2.55;;;0.85;;
43146;SDS011;28752;48.266;7.402;2023-08-08T14:54:41;3.55;;;0.93;;
43146;SDS011;28752;48.266;7.402;2023-08-08T14:57:07;1.43;;;0.77;;
43146;SDS011;28752;48.266;7.402;2023-08-08T15:01:58;2.60;;;0.83;;
43146;SDS011;28752;48.266;7.402;2023-08-08T15:04:23;2.17;;;0.80;;
43146;SDS011;28752;48.266;7.402;2023-08-08T15:06:48;2.00;;;0.70;;
43146;SDS011;28752;48.266;7.402;2023-08-08T15:11:39;2.83;;;0.93;;
43146;SDS011;28752;48.266;7.402;2023-08-08T15:14:04;3.17;;;1.00;;
43146;SDS011;28752;48.266;7.402;2023-08-08T15:16:30;2.22;;;0.80;;
43146;SDS011;28752;48.266;7.402;2023-08-08T15:18:55;2.75;;;0.80;;
43146;SDS011;28752;48.266;7.402;2023-08-08T15:21:21;1.77;;;0.85;;
43146;SDS011;28752;48.266;7.402;2023-08-08T15:23:47;2.78;;;0.90;;
43146;SDS011;28752;48.266;7.402;2023-08-08T15:28:37;3.22;;;0.80;;
43146;SDS011;28752;48.266;7.402;2023-08-08T15:31:03;2.92;;;1.00;;
43146;SDS011;28752;48.266;7.402;2023-08-08T15:33:29;1.90;;;0.82;;
43146;SDS011;28752;48.266;7.402;2023-08-08T15:35:54;3.47;;;1.10;;
43146;SDS011;28752;48.266;7.402;2023-08-08T15:38:19;2.08;;;1.00;;
43146;SDS011;28752;48.266;7.402;2023-08-08T15:40:45;1.83;;;0.70;;
43146;SDS011;28752;48.266;7.402;2023-08-08T15:43:10;2.15;;;0.88;;
43146;SDS011;28752;48.266;7.402;2023-08-08T15:45:35;1.35;;;0.68;;
43146;SDS011;28752;48.266;7.402;2023-08-08T15:48:01;2.33;;;0.80;;
43146;SDS011;28752;48.266;7.402;2023-08-08T15:50:27;3.17;;;1.25;;
43146;SDS011;28752;48.266;7.402;2023-08-08T15:52:52;1.85;;;0.95;;
43146;SDS011;28752;48.266;7.402;2023-08-08T15:55:21;2.92;;;1.10;;
43146;SDS011;28752;48.266;7.402;2023-08-08T15:57:46;2.78;;;0.80;;
43146;SDS011;28752;48.266;7.402;2023-08-08T16:00:12;1.75;;;0.82;;
43146;SDS011;28752;48.266;7.402;2023-08-08T16:02:37;3.13;;;0.88;;
43146;SDS011;28752;48.266;7.402;2023-08-08T16:05:03;1.93;;;0.80;;
43146;SDS011;28752;48.266;7.402;2023-08-08T16:07:28;2.85;;;0.90;;
43146;SDS011;28752;48.266;7.402;2023-08-08T16:09:54;2.42;;;1.10;;
43146;SDS011;28752;48.266;7.402;2023-08-08T16:12:19;2.13;;;1.00;;
43146;SDS011;28752;48.266;7.402;2023-08-08T16:14:45;2.15;;;0.80;;
43146;SDS011;28752;48.266;7.402;2023-08-08T16:17:10;3.07;;;1.03;;
43146;SDS011;28752;48.266;7.402;2023-08-08T16:19:36;2.10;;;1.00;;
43146;SDS011;28752;48.266;7.402;2023-08-08T16:22:01;1.77;;;0.93;;
43146;SDS011;28752;48.266;7.402;2023-08-08T16:24:28;3.20;;;0.98;;
43146;SDS011;28752;48.266;7.402;2023-08-08T16:26:53;2.17;;;0.90;;
43146;SDS011;28752;48.266;7.402;2023-08-08T16:29:19;3.13;;;0.80;;
43146;SDS011;28752;48.266;7.402;2023-08-08T16:31:44;1.65;;;0.95;;
43146;SDS011;28752;48.266;7.402;2023-08-08T16:34:10;3.10;;;1.00;;
43146;SDS011;28752;48.266;7.402;2023-08-08T16:36:36;2.90;;;0.90;;
43146;SDS011;28752;48.266;7.402;2023-08-08T16:39:01;2.17;;;1.08;;
43146;SDS011;28752;48.266;7.402;2023-08-08T16:41:28;1.90;;;0.73;;
43146;SDS011;28752;48.266;7.402;2023-08-08T16:43:56;1.77;;;0.85;;
43146;SDS011;28752;48.266;7.402;2023-08-08T16:46:25;2.53;;;0.80;;